Time;durP1;ratioP1;P1;durP2;ratioP2;P2;SDS_P1;SDS_P2;PMS_P1;PMS_P2;Temp;Humidity;BMP_temperature;BMP_pressure;BME280_temperature;BME280_humidity;BME280_pressure;Samples;Min_cycle;Max_cycle;Signal;HPM_P1;HPM_P2
2023/10/23 00:00:40;;;;;;;3.28;0.90;;;;;;;11.43;60.49;96963.38;4887643;28;20231;-81
2023/10/23 00:03:05;;;;;;;2.55;1.20;;;;;;;11.43;60.55;96960.75;4909300;28;20594;-81
2023/10/23 00:05:31;;;;;;;3.17;0.95;;;;;;;11.44;60.59;96962.31;4890744;28;20286;-80
2023/10/23 00:07:56;;;;;;;2.60;0.80;;;;;;;11.41;60.54;96956.81;4910333;28;20328;-80
2023/10/23 00:10:21;;;;;;;3.40;1.20;;;;;;;11.43;60.82;96960.75;4890038;28;20649;-81
2023/10/23 00:12:47;;;;;;;1.70;0.70;;;;;;;11.42;60.63;96956.56;4926236;28;20696;-80
2023/10/23 00:15:13;;;;;;;2.08;1.00;;;;;;;11.43;60.62;96954.78;4894143;28;20185;-81
2023/10/23 00:17:38;;;;;;;2.83;0.70;;;;;;;11.49;61.26;96968.59;4893777;28;20627;-81
2023/10/23 00:20:04;;;;;;;1.42;0.93;;;;;;;11.51;61.01;96966.53;4928549;28;20223;-81
2023/10/23 00:22:29;;;;;;;4.20;1.08;;;;;;;11.46;60.80;96958.69;4912361;28;20208;-82
2023/10/23 00:24:55;;;;;;;4.13;0.85;;;;;;;11.48;61.11;96957.41;4899953;28;20501;-81
2023/10/23 00:27:20;;;;;;;1.50;0.80;;;;;;;11.50;60.68;96957.13;4908111;28;20208;-81
2023/10/23 00:29:45;;;;;;;2.92;1.27;;;;;;;11.52;61.07;96957.66;4905034;28;20277;-80
2023/10/23 00:32:11;;;;;;;2.17;0.70;;;;;;;11.49;61.38;96960.78;4910300;28;20192;-81
2023/10/23 00:34:36;;;;;;;1.55;0.70;;;;;;;11.43;61.45;96958.16;4920176;28;20263;-81
2023/10/23 00:37:01;;;;;;;1.45;0.80;;;;;;;11.44;60.52;96959.72;4919015;28;20558;-81
2023/10/23 00:39:27;;;;;;;2.45;0.93;;;;;;;11.37;60.44;96963.59;4915491;28;20177;-81
2023/10/23 00:41:52;;;;;;;3.20;0.93;;;;;;;11.32;61.08;96959.13;4906170;28;20270;-80
2023/10/23 00:44:17;;;;;;;2.88;1.13;;;;;;;11.36;60.40;96965.44;4903000;28;20203;-81
2023/10/23 00:46:43;;;;;;;1.80;0.60;;;;;;;11.42;60.10;96967.00;4912634;28;20258;-81
2023/10/23 00:49:09;;;;;;;3.33;0.93;;;;;;;11.36;60.12;96967.22;4911071;28;20280;-81
2023/10/23 00:51:34;;;;;;;4.18;1.63;;;;;;;11.40;59.36;96969.09;4893948;28;20399;-80
2023/10/23 00:54:02;;;;;;;4.05;0.75;;;;;;;11.43;58.96;96973.81;4899618;28;20238;-80
2023/10/23 00:56:27;;;;;;;4.65;1.10;;;;;;;11.32;58.45;96961.75;4921033;28;20164;-80
2023/10/23 00:58:52;;;;;;;3.38;1.00;;;;;;;11.21;58.18;96960.16;4908478;28;20203;-80
2023/10/23 01:01:18;;;;;;;2.63;0.85;;;;;;;10.99;58.66;96950.63;4891427;28;20227;-80
2023/10/23 01:03:43;;;;;;;2.25;1.25;;;;;;;11.05;59.23;96964.47;4914095;28;20627;-81
2023/10/23 01:06:09;;;;;;;4.10;1.40;;;;;;;10.83;59.38;96951.56;4919090;28;20649;-80
2023/10/23 01:08:35;;;;;;;6.90;1.05;;;;;;;10.84;59.95;96958.38;4904520;28;20212;-81
2023/10/23 01:11:00;;;;;;;3.72;1.02;;;;;;;10.82;60.25;96956.00;4905094;28;20105;-81
2023/10/23 01:13:26;;;;;;;4.32;0.90;;;;;;;10.78;60.44;96954.94;4894313;28;20176;-80
2023/10/23 01:15:52;;;;;;;1.90;0.75;;;;;;;10.79;60.63;96966.16;4907238;28;20692;-79
2023/10/23 01:18:17;;;;;;;2.70;1.08;;;;;;;10.76;60.79;96962.22;4908008;28;20240;-80
2023/10/23 01:20:44;;;;;;;3.88;1.23;;;;;;;10.72;60.97;96958.53;4909113;28;20624;-80
2023/10/23 01:23:10;;;;;;;3.03;0.90;;;;;;;10.67;61.17;96961.88;4925261;28;20192;-80
2023/10/23 01:25:35;;;;;;;2.40;1.00;;;;;;;10.70;60.83;96967.66;4892612;28;20184;-81
2023/10/23 01:28:01;;;;;;;2.60;0.98;;;;;;;10.72;61.11;96965.56;4906991;28;20157;-80
2023/10/23 01:30:26;;;;;;;2.30;0.80;;;;;;;10.76;60.87;96971.84;4892886;28;20189;-81
2023/10/23 01:32:52;;;;;;;3.40;1.20;;;;;;;10.73;60.99;96967.13;4909549;28;20185;-81
2023/10/23 01:35:17;;;;;;;1.95;0.63;;;;;;;10.74;61.53;96969.50;4893785;28;20219;-80
2023/10/23 01:37:44;;;;;;;3.58;1.00;;;;;;;10.75;61.67;96971.06;4926904;28;20168;-81
2023/10/23 01:40:10;;;;;;;3.33;0.80;;;;;;;10.76;61.25;96970.03;4893618;28;20184;-81
2023/10/23 01:42:35;;;;;;;2.33;0.80;;;;;;;10.74;61.93;96963.50;4884816;28;20344;-81
2023/10/23 01:45:01;;;;;;;3.58;0.95;;;;;;;10.74;61.98;96963.50;4885592;28;20376;-81
2023/10/23 01:47:27;;;;;;;4.47;1.05;;;;;;;10.73;61.89;96967.13;4905519;28;20188;-81
2023/10/23 01:49:53;;;;;;;2.35;0.75;;;;;;;10.66;61.73;96957.72;4909891;28;20207;-81
2023/10/23 01:52:18;;;;;;;2.20;1.10;;;;;;;10.71;61.62;96964.00;4902723;28;20313;-80
2023/10/23 01:54:44;;;;;;;1.45;0.70;;;;;;;10.66;61.91;96962.94;4892772;28;20275;-81
2023/10/23 01:57:10;;;;;;;1.48;0.73;;;;;;;10.63;61.77;96958.22;4892658;28;20618;-81
2023/10/23 01:59:36;;;;;;;3.33;0.80;;;;;;;10.65;61.96;96961.34;4907201;28;20200;-81
2023/10/23 02:02:02;;;;;;;1.88;1.13;;;;;;;10.65;62.34;96961.34;4908084;28;20642;-80
2023/10/23 02:04:28;;;;;;;1.92;0.73;;;;;;;10.73;62.40;96972.34;4910029;28;20180;-80
2023/10/23 02:06:53;;;;;;;2.40;0.70;;;;;;;10.77;62.09;96969.00;4913111;28;20227;-81
2023/10/23 02:09:18;;;;;;;2.25;1.00;;;;;;;10.77;62.60;96957.81;4929449;28;20298;-81
2023/10/23 02:11:44;;;;;;;1.85;0.75;;;;;;;10.78;62.64;96962.75;4897517;28;20600;-81
2023/10/23 02:14:10;;;;;;;1.77;0.90;;;;;;;10.78;62.03;96969.78;4912991;28;20212;-81
2023/10/23 02:16:35;;;;;;;0.90;0.60;;;;;;;10.75;62.22;96965.84;4928183;28;20136;-80
2023/10/23 02:19:00;;;;;;;1.42;0.70;;;;;;;10.73;62.35;96962.72;4929237;28;20315;-81
2023/10/23 02:21:26;;;;;;;2.80;1.05;;;;;;;10.70;61.87;96962.44;4892412;28;20294;-81
2023/10/23 02:23:51;;;;;;;2.38;1.02;;;;;;;10.72;62.06;96965.56;4897824;28;20238;-81
2023/10/23 02:26:17;;;;;;;3.72;0.68;;;;;;;10.67;62.34;96963.72;4908970;28;20207;-81
2023/10/23 02:28:42;;;;;;;1.95;0.80;;;;;;;10.65;62.12;96966.56;4909715;28;20690;-80
2023/10/23 02:31:08;;;;;;;1.15;0.55;;;;;;;10.59;62.39;96958.97;4892506;28;20183;-81
2023/10/23 02:33:33;;;;;;;1.80;0.63;;;;;;;10.61;61.98;96968.09;4889944;28;20131;-81
2023/10/23 02:35:59;;;;;;;3.00;0.85;;;;;;;10.59;62.39;96967.56;4895165;28;20292;-80
2023/10/23 02:38:24;;;;;;;2.92;0.73;;;;;;;10.53;62.79;96967.78;4921078;28;20173;-80
2023/10/23 02:40:53;;;;;;;1.33;0.40;;;;;;;10.43;62.99;96960.66;4892955;28;20268;-80
2023/10/23 02:43:19;;;;;;;3.25;0.63;;;;;;;10.42;63.21;96964.31;4896403;28;20192;-80
2023/10/23 02:45:44;;;;;;;1.88;0.60;;;;;;;10.39;62.98;96954.41;4912430;28;20633;-79
2023/10/23 02:48:10;;;;;;;1.83;0.63;;;;;;;10.46;62.55;96958.34;4911523;28;20263;-80
2023/10/23 02:50:35;;;;;;;1.30;0.63;;;;;;;10.46;62.45;96952.38;4912987;28;20271;-80
2023/10/23 02:53:00;;;;;;;1.55;0.60;;;;;;;10.46;62.66;96954.97;4926654;28;20185;-79
2023/10/23 02:55:29;;;;;;;2.42;1.02;;;;;;;10.39;62.98;96946.59;4927798;28;20242;-80
2023/10/23 02:57:57;;;;;;;1.10;0.40;;;;;;;10.44;63.02;96949.25;4926441;28;20242;-80
2023/10/23 03:00:23;;;;;;;2.47;0.90;;;;;;;10.36;62.65;96939.28;4928279;28;20283;-79
2023/10/23 03:02:49;;;;;;;2.83;1.10;;;;;;;10.33;62.74;96953.56;4927618;28;20280;-80
2023/10/23 03:05:15;;;;;;;3.28;0.95;;;;;;;10.36;62.86;96957.50;4911744;28;21023;-79
2023/10/23 03:07:40;;;;;;;1.42;0.52;;;;;;;10.30;62.75;96954.81;4910219;28;20275;-80
2023/10/23 03:10:06;;;;;;;3.20;0.93;;;;;;;10.27;62.70;96938.91;4910473;28;20249;-80
2023/10/23 03:12:32;;;;;;;2.42;0.70;;;;;;;10.28;62.88;96941.28;4912143;28;20243;-79
2023/10/23 03:14:57;;;;;;;0.95;0.50;;;;;;;10.36;63.11;96947.09;4909276;28;20283;-79
2023/10/23 03:17:23;;;;;;;1.98;0.90;;;;;;;10.38;62.27;96952.81;4922694;28;20196;-79
2023/10/23 03:19:48;;;;;;;4.35;1.48;;;;;;;10.25;62.61;96941.00;4929182;28;20637;-79
2023/10/23 03:22:14;;;;;;;3.38;0.85;;;;;;;10.23;62.60;96940.44;4911553;28;20346;-80
2023/10/23 03:24:39;;;;;;;2.10;0.68;;;;;;;10.26;62.34;96942.53;4910311;28;20287;-79
2023/10/23 03:27:04;;;;;;;2.47;0.68;;;;;;;10.25;62.27;96941.00;4895340;28;20686;-80
2023/10/23 03:29:30;;;;;;;1.95;0.90;;;;;;;10.22;62.56;96941.47;4892612;28;20196;-80
2023/10/23 03:31:56;;;;;;;1.90;0.63;;;;;;;10.23;62.07;96945.63;4924178;28;20281;-79
2023/10/23 03:34:24;;;;;;;2.90;0.90;;;;;;;10.23;62.30;96943.84;4910161;28;20195;-80
2023/10/23 03:36:49;;;;;;;2.30;0.63;;;;;;;10.25;62.61;96941.00;4927299;28;20199;-81
2023/10/23 03:39:15;;;;;;;2.05;0.90;;;;;;;10.16;62.68;96943.25;4912014;28;20211;-80
2023/10/23 03:41:42;;;;;;;1.80;0.70;;;;;;;10.17;62.56;96944.03;4895234;28;20255;-80
2023/10/23 03:44:08;;;;;;;1.58;0.60;;;;;;;10.11;62.82;96944.00;4928114;28;20197;-81
2023/10/23 03:46:33;;;;;;;1.10;0.43;;;;;;;10.16;62.96;96939.84;4895012;28;20176;-80
2023/10/23 03:48:59;;;;;;;1.27;0.55;;;;;;;10.14;62.95;96942.69;4926137;28;20595;-80
2023/10/23 03:51:24;;;;;;;3.63;0.60;;;;;;;10.12;62.91;96939.56;4923877;28;20240;-79
2023/10/23 03:53:49;;;;;;;2.88;0.90;;;;;;;10.05;63.31;96941.59;4926560;28;20162;-79
2023/10/23 03:56:15;;;;;;;1.17;0.60;;;;;;;10.02;62.82;96937.66;4894411;28;20634;-79
2023/10/23 03:58:40;;;;;;;2.70;0.90;;;;;;;9.99;63.03;96932.97;4925562;28;20748;-80
2023/10/23 04:01:05;;;;;;;3.70;1.10;;;;;;;9.88;63.41;96926.84;4893724;28;20189;-80
2023/10/23 04:03:31;;;;;;;4.60;2.22;;;;;;;9.84;63.41;96927.63;4906173;28;20700;-80
2023/10/23 04:05:56;;;;;;;4.13;1.77;;;;;;;9.83;63.25;96924.22;4908045;28;20255;-80
2023/10/23 04:08:22;;;;;;;2.97;2.50;;;;;;;9.92;62.86;96930.56;4893625;28;20878;-79
2023/10/23 04:10:48;;;;;;;3.97;1.95;;;;;;;9.88;62.81;96929.47;4895202;28;20215;-80
2023/10/23 04:13:14;;;;;;;2.20;1.67;;;;;;;9.86;62.97;96931.53;4906739;28;20217;-80
2023/10/23 04:15:40;;;;;;;4.82;2.33;;;;;;;9.79;62.87;96923.13;4910478;28;20665;-80
2023/10/23 04:18:05;;;;;;;4.63;2.00;;;;;;;9.81;63.62;96920.28;4910102;28;20301;-80
2023/10/23 04:20:30;;;;;;;5.10;1.98;;;;;;;9.84;62.58;96914.63;4910481;28;20199;-80
2023/10/23 04:22:56;;;;;;;3.50;1.50;;;;;;;9.78;62.60;96921.56;4910046;28;20726;-80
2023/10/23 04:25:21;;;;;;;2.75;1.15;;;;;;;9.77;62.55;96924.41;4914062;28;20189;-80
2023/10/23 04:27:46;;;;;;;1.73;0.80;;;;;;;9.79;63.18;96927.56;4905000;28;20717;-80
2023/10/23 04:30:12;;;;;;;1.50;0.70;;;;;;;9.75;63.15;96916.88;4908349;28;20168;-79
2023/10/23 04:32:37;;;;;;;3.10;1.15;;;;;;;9.78;63.03;96912.97;4899985;28;20283;-80
2023/10/23 04:35:03;;;;;;;2.10;0.75;;;;;;;9.79;63.57;96910.13;4901182;28;20177;-80
2023/10/23 04:37:29;;;;;;;3.28;0.90;;;;;;;9.83;63.73;96926.81;4909327;28;20642;-79
2023/10/23 04:39:54;;;;;;;3.08;1.10;;;;;;;9.82;63.60;96925.25;4917955;28;20171;-79
2023/10/23 04:42:19;;;;;;;2.72;1.38;;;;;;;9.83;63.69;96919.00;4925619;28;20276;-79
2023/10/23 04:44:48;;;;;;;2.33;0.60;;;;;;;9.92;63.68;96911.53;4905003;28;20162;-79
2023/10/23 04:47:13;;;;;;;3.40;0.90;;;;;;;9.91;63.23;96923.00;4908781;28;20705;-79
2023/10/23 04:49:39;;;;;;;1.42;0.70;;;;;;;9.93;63.60;96923.53;4894412;28;20244;-79
2023/10/23 04:52:04;;;;;;;1.73;0.68;;;;;;;9.93;63.71;96919.09;4909549;28;20183;-79
2023/10/23 04:54:30;;;;;;;0.60;0.40;;;;;;;9.91;63.42;96920.41;4922907;28;20366;-79
2023/10/23 04:56:55;;;;;;;2.08;0.60;;;;;;;9.88;63.86;96908.66;4905132;28;20212;-80
2023/10/23 04:59:20;;;;;;;3.53;0.65;;;;;;;9.82;63.26;96896.66;4910847;28;20315;-80
2023/10/23 05:01:46;;;;;;;1.40;0.80;;;;;;;9.81;63.75;96897.66;4917860;28;20253;-80
2023/10/23 05:04:11;;;;;;;3.45;1.48;;;;;;;9.79;63.14;96910.13;4909827;28;20657;-80
2023/10/23 05:06:37;;;;;;;1.60;1.20;;;;;;;9.84;63.27;96899.78;4909716;28;20270;-80
2023/10/23 05:09:04;;;;;;;3.15;1.10;;;;;;;9.84;62.84;96899.00;4891702;28;20246;-81
2023/10/23 05:11:31;;;;;;;5.28;1.40;;;;;;;9.83;62.35;96898.22;4890446;28;20185;-80
2023/10/23 05:13:56;;;;;;;2.30;1.58;;;;;;;9.81;62.67;96905.47;4908393;28;20174;-80
2023/10/23 05:16:22;;;;;;;4.15;1.35;;;;;;;9.78;62.99;96899.97;4909442;28;20571;-80
2023/10/23 05:18:47;;;;;;;2.35;1.13;;;;;;;9.86;63.15;96897.72;4909251;28;20258;-80
2023/10/23 05:21:12;;;;;;;5.13;1.90;;;;;;;9.86;62.81;96902.91;4903325;28;20553;-80
2023/10/23 05:23:41;;;;;;;3.88;1.25;;;;;;;9.97;63.22;96897.81;4886360;28;20199;-81
2023/10/23 05:26:10;;;;;;;4.65;1.25;;;;;;;9.94;63.17;96899.88;4893441;28;20204;-80
2023/10/23 05:28:38;;;;;;;3.83;1.85;;;;;;;10.00;63.44;96898.09;4924988;28;20658;-81
2023/10/23 05:31:03;;;;;;;8.23;3.17;;;;;;;10.00;64.55;96892.13;4936060;28;20232;-81
2023/10/23 05:33:28;;;;;;;8.68;4.63;;;;;;;9.96;64.11;96894.44;4910149;28;20649;-81
2023/10/23 05:36:20;;;;;;;9.70;3.97;;;;;;;10.17;63.27;96889.41;4926328;28;20201;-80
2023/10/23 05:38:45;;;;;;;7.50;3.35;;;;;;;10.05;63.29;96889.56;4902819;28;20646;-81
2023/10/23 05:41:11;;;;;;;5.32;2.45;;;;;;;10.04;63.44;96883.59;4894186;28;20213;-81
2023/10/23 05:43:36;;;;;;;4.75;2.47;;;;;;;10.02;63.44;96892.66;4894890;28;20200;-81
2023/10/23 05:46:03;;;;;;;6.13;3.10;;;;;;;10.09;63.23;96895.84;4910183;28;20200;-81
2023/10/23 05:48:29;;;;;;;3.78;1.90;;;;;;;10.03;63.44;96892.41;4890978;28;20643;-81
2023/10/23 05:50:58;;;;;;;5.50;1.98;;;;;;;10.17;63.36;96897.97;4922428;28;20349;-81
2023/10/23 05:53:24;;;;;;;6.90;4.03;;;;;;;10.07;63.74;96895.28;4925172;28;20664;-80
2023/10/23 05:55:49;;;;;;;16.60;12.82;;;;;;;10.11;63.87;96899.78;4910284;28;20203;-80
2023/10/23 05:58:14;;;;;;;16.88;15.10;;;;;;;10.11;63.94;96893.78;4885390;28;20173;-80
2023/10/23 06:00:40;;;;;;;15.35;11.48;;;;;;;10.14;63.50;96890.66;4885663;28;20216;-79
2023/10/23 06:03:05;;;;;;;35.15;30.08;;;;;;;10.20;63.60;96901.91;4905690;28;20203;-80
2023/10/23 06:05:31;;;;;;;37.92;31.02;;;;;;;10.23;64.06;96897.00;4909821;28;20242;-80
2023/10/23 06:07:56;;;;;;;28.67;24.15;;;;;;;10.27;64.17;96897.28;4922803;28;20221;-82
2023/10/23 06:10:21;;;;;;;22.42;20.05;;;;;;;10.27;63.74;96895.47;4911258;28;20190;-80
2023/10/23 06:12:47;;;;;;;29.85;26.65;;;;;;;10.30;63.48;96902.00;4909830;28;20187;-80
2023/10/23 06:15:12;;;;;;;25.50;22.80;;;;;;;10.42;63.57;96904.47;4900647;28;20309;-80
2023/10/23 06:17:38;;;;;;;17.90;16.10;;;;;;;10.44;63.26;96894.59;4908369;28;20306;-82
2023/10/23 06:20:03;;;;;;;16.38;14.68;;;;;;;10.42;63.29;96894.06;4908009;28;20649;-80
2023/10/23 06:22:29;;;;;;;11.75;10.63;;;;;;;10.43;63.28;96891.19;4892968;28;20373;-79
2023/10/23 06:24:54;;;;;;;8.38;6.47;;;;;;;10.45;63.34;96906.53;4905957;28;20285;-80
2023/10/23 06:27:23;;;;;;;5.95;4.35;;;;;;;10.45;63.54;96893.53;4892662;28;20353;-80
2023/10/23 06:29:51;;;;;;;3.97;2.53;;;;;;;10.63;63.84;96902.78;4908386;28;20604;-80
2023/10/23 06:32:18;;;;;;;2.97;1.80;;;;;;;10.60;63.82;96905.88;4907331;28;20307;-80
2023/10/23 06:34:43;;;;;;;2.80;1.23;;;;;;;10.63;63.71;96900.94;4908963;28;20204;-80
2023/10/23 06:37:10;;;;;;;4.55;1.40;;;;;;;10.65;64.15;96893.66;4915284;28;20250;-80
2023/10/23 06:39:35;;;;;;;12.07;10.70;;;;;;;10.71;64.81;96891.09;4891169;28;20664;-80
2023/10/23 06:42:00;;;;;;;24.17;15.90;;;;;;;10.66;64.09;96889.25;4924808;28;20196;-80
2023/10/23 06:44:26;;;;;;;12.90;9.30;;;;;;;10.75;63.68;96879.16;4905661;28;20181;-80
2023/10/23 06:46:52;;;;;;;12.95;8.48;;;;;;;10.63;63.79;96884.56;4924779;28;20207;-80
2023/10/23 06:49:18;;;;;;;15.18;13.05;;;;;;;10.67;63.14;96890.81;4907118;28;20239;-80
2023/10/23 06:51:43;;;;;;;14.88;11.45;;;;;;;10.67;63.88;96891.59;4924555;28;20301;-80
2023/10/23 06:54:08;;;;;;;7.32;5.80;;;;;;;10.76;64.14;96906.75;4908812;28;20255;-80
2023/10/23 06:56:34;;;;;;;5.63;4.93;;;;;;;10.77;63.61;96911.69;4889068;28;20191;-80
2023/10/23 06:58:59;;;;;;;5.53;3.78;;;;;;;10.80;63.51;96907.81;4922491;28;20600;-80
2023/10/23 07:01:24;;;;;;;7.80;2.63;;;;;;;10.84;63.50;96901.06;4911634;28;20603;-80
2023/10/23 07:03:50;;;;;;;6.65;2.28;;;;;;;10.90;63.01;96907.06;4911681;28;20584;-80
2023/10/23 07:06:15;;;;;;;4.13;2.58;;;;;;;10.94;63.82;96903.72;4911305;28;20211;-80
2023/10/23 07:08:40;;;;;;;3.53;1.80;;;;;;;10.98;63.57;96896.19;4912306;28;20720;-80
2023/10/23 07:11:16;;;;;;;6.85;2.50;;;;;;;11.06;64.50;96893.88;4894090;28;20701;-81
2023/10/23 07:13:41;;;;;;;9.13;3.53;;;;;;;11.08;64.38;96896.22;4906677;28;20288;-80
2023/10/23 07:16:07;;;;;;;6.55;4.50;;;;;;;11.16;64.96;96895.75;4920347;28;20296;-80
2023/10/23 07:18:32;;;;;;;6.82;4.65;;;;;;;11.27;64.88;96887.97;4911480;28;20633;-81
2023/10/23 07:21:02;;;;;;;6.65;4.63;;;;;;;11.39;64.48;96889.31;4926771;28;20686;-80
2023/10/23 07:23:31;;;;;;;7.30;3.88;;;;;;;11.44;63.79;96873.69;4926076;28;20727;-80
2023/10/23 07:26:22;;;;;;;5.68;3.42;;;;;;;11.73;62.96;96881.03;4911699;28;20113;-80
2023/10/23 07:28:48;;;;;;;4.68;2.67;;;;;;;11.54;63.71;96866.94;4924582;28;20317;-81
2023/10/23 07:31:14;;;;;;;3.67;2.13;;;;;;;11.61;63.99;96868.25;4925214;28;20250;-80
2023/10/23 07:33:39;;;;;;;4.88;2.30;;;;;;;11.74;63.69;96884.47;4925632;28;20258;-80
2023/10/23 07:36:05;;;;;;;3.33;2.00;;;;;;;11.84;63.71;96883.66;4924626;28;20052;-78
2023/10/23 07:38:31;;;;;;;6.60;2.15;;;;;;;11.86;63.34;96877.16;4937886;28;20034;-80
2023/10/23 07:40:57;;;;;;;5.65;2.20;;;;;;;11.93;64.91;96867.28;4939059;28;20677;-82
2023/10/23 07:43:24;;;;;;;5.93;2.00;;;;;;;11.99;64.89;96857.63;4920180;28;20028;-82
2023/10/23 07:45:50;;;;;;;5.15;3.33;;;;;;;11.98;64.89;96851.63;4925357;28;20239;-81
2023/10/23 07:48:15;;;;;;;6.63;2.38;;;;;;;12.13;64.53;96863.09;4922490;28;20275;-82
2023/10/23 07:50:40;;;;;;;4.10;1.88;;;;;;;12.22;64.75;96855.53;4912820;28;20112;-83
2023/10/23 07:53:06;;;;;;;4.60;2.63;;;;;;;12.23;64.28;96859.72;4926768;28;20102;-79
2023/10/23 07:55:31;;;;;;;4.10;2.20;;;;;;;12.36;63.91;96861.78;4894925;28;20596;-81
2023/10/23 07:57:57;;;;;;;5.43;2.88;;;;;;;12.38;64.23;96857.09;4909130;28;20273;-83
2023/10/23 08:00:22;;;;;;;7.10;2.42;;;;;;;12.43;63.84;96857.06;4895386;28;20698;-80
2023/10/23 08:02:48;;;;;;;4.47;2.40;;;;;;;12.49;64.22;96861.25;4895664;28;20212;-82
2023/10/23 08:05:13;;;;;;;3.53;2.17;;;;;;;12.54;64.44;96863.06;4911257;28;20313;-83
2023/10/23 08:07:38;;;;;;;3.83;1.90;;;;;;;12.63;64.30;96861.47;4929047;28;20228;-82
2023/10/23 08:10:04;;;;;;;2.92;1.83;;;;;;;12.63;64.58;96845.81;4911322;28;20294;-82
2023/10/23 08:12:30;;;;;;;3.83;2.20;;;;;;;12.79;63.88;96870.06;4904188;28;20106;-82
2023/10/23 08:14:55;;;;;;;3.92;2.40;;;;;;;12.81;64.21;96867.19;4926870;28;20346;-82
2023/10/23 08:17:20;;;;;;;4.50;2.30;;;;;;;12.88;63.50;96863.22;4912256;28;20326;-82
2023/10/23 08:19:46;;;;;;;4.00;1.80;;;;;;;12.99;63.90;96868.41;4881987;28;20216;-83
2023/10/23 08:22:11;;;;;;;4.75;1.90;;;;;;;13.03;63.79;96854.56;4900547;28;20330;-82
2023/10/23 08:24:36;;;;;;;4.25;1.95;;;;;;;13.14;64.41;96855.28;4895730;28;20117;-82
2023/10/23 08:27:02;;;;;;;5.72;2.33;;;;;;;13.18;63.78;96843.25;4896461;28;20113;-83
2023/10/23 08:29:28;;;;;;;5.25;3.08;;;;;;;13.32;64.12;96856.56;4891414;28;20625;-83
2023/10/23 08:31:53;;;;;;;6.25;2.38;;;;;;;13.42;63.90;96847.88;4889363;28;20342;-83
2023/10/23 08:34:21;;;;;;;3.78;2.30;;;;;;;13.47;64.26;96843.41;4895188;28;20176;-83
2023/10/23 08:36:47;;;;;;;6.25;1.63;;;;;;;13.64;63.27;96853.50;4893809;28;20097;-82
2023/10/23 08:39:13;;;;;;;3.90;1.75;;;;;;;13.68;63.33;96846.66;4911550;28;20223;-82
2023/10/23 08:41:38;;;;;;;5.15;2.97;;;;;;;13.75;63.38;96858.66;4910493;28;20543;-82
2023/10/23 08:44:04;;;;;;;9.38;4.82;;;;;;;13.76;63.63;96844.50;4911050;28;20603;-82
2023/10/23 08:46:31;;;;;;;6.45;3.88;;;;;;;13.93;63.54;96850.16;4918265;28;20729;-83
2023/10/23 08:48:57;;;;;;;6.90;3.47;;;;;;;13.95;63.79;96842.00;4927402;28;20507;-83
2023/10/23 08:51:23;;;;;;;5.13;2.75;;;;;;;13.99;63.65;96841.19;4908841;28;20212;-84
2023/10/23 08:53:55;;;;;;;6.03;2.80;;;;;;;14.12;63.77;96833.75;4912379;28;20203;-83
2023/10/23 08:56:21;;;;;;;5.57;2.33;;;;;;;14.07;63.88;96829.38;4894109;28;20211;-83
2023/10/23 08:58:52;;;;;;;5.15;1.67;;;;;;;14.19;64.04;96836.88;4912271;28;20211;-83
2023/10/23 09:01:18;;;;;;;3.25;1.73;;;;;;;14.22;63.94;96825.81;4910822;28;20243;-83
2023/10/23 09:03:44;;;;;;;5.28;2.03;;;;;;;14.35;63.71;96832.25;4919591;28;20279;-83
2023/10/23 09:06:09;;;;;;;3.95;1.58;;;;;;;14.42;64.22;96830.88;4878702;28;20201;-84
2023/10/23 09:08:37;;;;;;;3.95;1.73;;;;;;;14.48;64.50;96825.56;4896108;28;20380;-84
2023/10/23 09:11:04;;;;;;;5.05;2.63;;;;;;;14.59;63.71;96824.44;4911950;28;20195;-83
2023/10/23 09:13:38;;;;;;;4.50;1.88;;;;;;;14.68;63.92;96825.38;4908646;28;20208;-83
2023/10/23 09:16:10;;;;;;;3.83;1.73;;;;;;;14.69;63.42;96816.47;4910807;28;20227;-83
2023/10/23 09:18:51;;;;;;;6.00;1.65;;;;;;;14.84;62.29;96815.53;4910964;28;20286;-83
2023/10/23 09:21:17;;;;;;;4.95;1.33;;;;;;;14.59;62.21;96809.50;4898783;28;20248;-83
2023/10/23 09:23:54;;;;;;;5.82;1.55;;;;;;;14.90;62.27;96816.25;4898748;28;20404;-83
2023/10/23 09:26:20;;;;;;;3.65;2.00;;;;;;;14.88;61.44;96813.13;4912391;28;20239;-81
2023/10/23 09:28:50;;;;;;;3.70;2.30;;;;;;;14.98;62.25;96826.13;4910691;28;20380;-83
2023/10/23 09:31:18;;;;;;;4.38;1.55;;;;;;;14.93;61.03;96828.78;4924160;28;20310;-82
2023/10/23 09:33:45;;;;;;;2.20;1.00;;;;;;;15.10;59.73;96829.09;4917700;28;20164;-82
2023/10/23 09:36:11;;;;;;;3.55;1.70;;;;;;;15.22;60.33;96820.81;4917742;28;20446;-83
2023/10/23 09:38:39;;;;;;;3.53;1.17;;;;;;;15.31;57.77;96826.22;4917086;28;20254;-84
2023/10/23 09:41:09;;;;;;;3.13;1.00;;;;;;;15.39;59.65;96822.97;4904671;28;20206;-82
2023/10/23 09:43:36;;;;;;;3.90;1.60;;;;;;;15.29;59.47;96802.88;4894966;28;20289;-84
2023/10/23 09:46:02;;;;;;;3.67;1.85;;;;;;;15.29;59.24;96799.50;4913004;28;20194;-83
2023/10/23 09:48:28;;;;;;;2.25;0.80;;;;;;;15.36;59.11;96811.19;4910042;28;20271;-84
2023/10/23 09:50:54;;;;;;;2.88;1.27;;;;;;;15.44;58.34;96811.59;4896153;28;20190;-81
2023/10/23 09:53:20;;;;;;;2.97;1.38;;;;;;;15.47;58.64;96806.59;4892591;28;20245;-82
2023/10/23 09:55:46;;;;;;;2.63;1.25;;;;;;;15.48;58.91;96802.09;4892928;28;20192;-83
2023/10/23 09:58:15;;;;;;;3.35;1.15;;;;;;;15.45;58.73;96798.19;4908972;28;20243;-83
2023/10/23 10:00:45;;;;;;;1.88;1.00;;;;;;;15.41;56.28;96809.56;4888448;28;20269;-82
2023/10/23 10:03:12;;;;;;;2.65;1.10;;;;;;;15.53;57.38;96804.66;4895377;28;20355;-82
2023/10/23 10:05:50;;;;;;;2.10;0.90;;;;;;;15.51;57.07;96791.81;4895075;28;20309;-83
2023/10/23 10:08:17;;;;;;;2.85;1.00;;;;;;;15.50;57.67;96794.72;4890816;28;20705;-83
2023/10/23 10:10:43;;;;;;;2.25;1.08;;;;;;;15.49;57.56;96793.97;4932345;28;20204;-83
2023/10/23 10:13:10;;;;;;;3.70;1.10;;;;;;;15.49;56.47;96787.91;4914889;28;20211;-83
2023/10/23 10:15:36;;;;;;;5.25;1.50;;;;;;;15.53;56.52;96779.19;4899471;28;20158;-83
2023/10/23 10:18:01;;;;;;;3.05;1.33;;;;;;;15.64;55.18;96777.19;4888959;28;20191;-83
2023/10/23 10:20:27;;;;;;;2.92;1.88;;;;;;;15.63;57.44;96786.13;4893080;28;20294;-83
2023/10/23 10:23:11;;;;;;;2.20;0.80;;;;;;;15.82;56.04;96775.63;4901513;28;20197;-84
2023/10/23 10:25:41;;;;;;;3.72;1.55;;;;;;;15.73;56.16;96778.09;4923914;28;20622;-84
2023/10/23 10:28:08;;;;;;;3.65;1.73;;;;;;;15.70;56.31;96762.91;4912839;28;20299;-83
2023/10/23 10:30:40;;;;;;;3.75;0.80;;;;;;;15.74;55.82;96763.91;4897485;28;20196;-83
2023/10/23 10:33:10;;;;;;;2.03;0.80;;;;;;;15.76;56.33;96758.38;4903430;28;20160;-83
2023/10/23 10:35:35;;;;;;;1.98;0.95;;;;;;;15.75;54.06;96775.22;4910217;28;20216;-80
2023/10/23 10:38:03;;;;;;;2.22;1.33;;;;;;;15.86;54.73;96773.19;4895963;28;20188;-82
2023/10/23 10:40:59;;;;;;;1.83;0.82;;;;;;;16.06;53.27;96770.22;4923224;28;20294;-82
2023/10/23 10:43:25;;;;;;;1.55;0.95;;;;;;;15.90;54.80;96763.66;4883724;28;20258;-82
2023/10/23 10:45:51;;;;;;;2.67;0.90;;;;;;;16.01;55.26;96761.66;4910799;28;20614;-81
2023/10/23 10:48:16;;;;;;;1.75;0.73;;;;;;;16.02;55.89;96744.84;4895181;28;20242;-79
2023/10/23 10:50:42;;;;;;;2.38;0.80;;;;;;;16.08;55.57;96746.31;4898344;28;20336;-80
2023/10/23 10:53:09;;;;;;;3.28;1.10;;;;;;;16.10;54.83;96739.69;4929998;28;20201;-82
2023/10/23 10:55:36;;;;;;;1.70;0.75;;;;;;;16.06;54.05;96738.72;4897535;28;20211;-81
2023/10/23 10:58:03;;;;;;;1.63;1.10;;;;;;;16.13;53.92;96732.31;4914091;28;20209;-81
2023/10/23 11:00:33;;;;;;;2.20;0.80;;;;;;;16.13;53.64;96717.31;4921163;28;20249;-81
2023/10/23 11:02:59;;;;;;;2.65;1.10;;;;;;;16.03;53.23;96725.41;4897199;28;20668;-80
2023/10/23 11:05:25;;;;;;;3.10;1.60;;;;;;;16.04;53.30;96714.59;4913099;28;20191;-82
2023/10/23 11:07:51;;;;;;;3.33;1.15;;;;;;;16.20;53.76;96716.94;4914246;28;20393;-80
2023/10/23 11:10:17;;;;;;;3.30;1.48;;;;;;;16.33;52.52;96718.00;4929067;28;20207;-80
2023/10/23 11:12:43;;;;;;;2.25;0.70;;;;;;;16.28;53.25;96709.16;4912592;28;20747;-82
2023/10/23 11:15:09;;;;;;;1.73;0.73;;;;;;;16.31;52.96;96707.00;4909743;28;20210;-81
2023/10/23 11:17:35;;;;;;;2.97;0.68;;;;;;;16.33;53.35;96704.88;4912329;28;20279;-82
2023/10/23 11:20:06;;;;;;;1.75;1.00;;;;;;;16.40;53.93;96698.16;4930134;28;20568;-82
2023/10/23 11:22:31;;;;;;;3.92;0.88;;;;;;;16.25;52.94;96688.72;4884534;28;20619;-81
2023/10/23 11:24:56;;;;;;;2.53;0.80;;;;;;;16.35;52.71;96693.00;4921602;28;20200;-82
2023/10/23 11:27:22;;;;;;;2.10;1.38;;;;;;;16.26;53.05;96674.53;4882105;28;20617;-82
2023/10/23 11:29:48;;;;;;;1.58;0.98;;;;;;;16.36;53.18;96680.63;4910331;28;20772;-81